createdAt,value
2018-06-30T00:00:08.795Z,13.52
2018-06-30T00:03:13.417Z,13.43
2018-06-30T00:06:18.232Z,13.34
2018-06-30T00:09:22.808Z,13.29
2018-06-30T00:12:27.350Z,13.29
2018-06-30T00:15:32.263Z,13.30
2018-06-30T00:18:36.840Z,13.33
2018-06-30T00:21:41.324Z,13.37
2018-06-30T00:24:46.470Z,13.38
2018-06-30T00:27:51.139Z,13.39
2018-06-30T00:30:55.609Z,13.48
2018-06-30T00:34:00.257Z,13.52
2018-06-30T00:37:04.932Z,13.50
2018-06-30T00:40:09.492Z,13.46
2018-06-30T00:43:14.057Z,13.41
2018-06-30T00:46:18.652Z,13.37
2018-06-30T00:49:23.276Z,13.36
2018-06-30T00:52:27.901Z,13.35
2018-06-30T00:55:32.904Z,13.36
2018-06-30T00:58:37.506Z,13.37
2018-06-30T01:01:42.113Z,13.37
2018-06-30T01:04:46.810Z,13.39
2018-06-30T01:07:51.335Z,13.44
2018-06-30T01:10:55.850Z,13.43
2018-06-30T01:14:00.445Z,13.40
2018-06-30T01:17:05.219Z,13.40
2018-06-30T01:20:09.830Z,13.39
2018-06-30T01:23:14.600Z,13.37
2018-06-30T01:26:19.216Z,13.37
2018-06-30T01:29:23.948Z,13.38
2018-06-30T01:32:28.550Z,13.34
2018-06-30T01:35:32.959Z,13.34
2018-06-30T01:38:37.540Z,13.33
2018-06-30T01:41:42.007Z,13.34
2018-06-30T01:44:46.837Z,13.32
2018-06-30T01:47:51.405Z,13.26
2018-06-30T01:50:56.012Z,13.25
2018-06-30T01:54:00.476Z,13.21
2018-06-30T01:57:05.089Z,13.14
2018-06-30T02:00:09.742Z,13.07
2018-06-30T02:03:14.279Z,13.02
2018-06-30T02:06:18.826Z,13.02
2018-06-30T02:09:23.304Z,12.98
2018-06-30T02:12:27.603Z,12.99
2018-06-30T02:15:32.044Z,12.99
2018-06-30T02:18:36.505Z,13.00
2018-06-30T02:21:41.260Z,12.97
2018-06-30T02:24:45.675Z,12.99
2018-06-30T02:27:50.301Z,12.94
2018-06-30T02:30:54.818Z,12.89
2018-06-30T02:33:59.330Z,12.84
2018-06-30T02:37:03.881Z,12.80
2018-06-30T02:40:08.423Z,12.76
2018-06-30T02:43:13.733Z,12.77
2018-06-30T02:46:18.254Z,12.80
2018-06-30T02:49:22.884Z,12.83
2018-06-30T02:52:27.824Z,12.89
2018-06-30T02:55:32.344Z,12.87
2018-06-30T02:58:36.996Z,12.84
2018-06-30T03:01:41.592Z,12.83
2018-06-30T03:04:46.103Z,12.84
2018-06-30T03:07:50.637Z,12.85
2018-06-30T03:10:55.100Z,12.88
2018-06-30T03:13:59.594Z,12.84
2018-06-30T03:17:04.137Z,12.86
2018-06-30T03:20:08.660Z,13.10
2018-06-30T03:23:13.171Z,13.42
2018-06-30T03:26:17.744Z,13.78
2018-06-30T03:29:22.209Z,14.12
2018-06-30T03:32:26.727Z,14.44
2018-06-30T03:35:31.332Z,14.66
2018-06-30T03:38:35.922Z,14.94
2018-06-30T03:41:40.490Z,15.17
2018-06-30T03:44:45.009Z,15.38
2018-06-30T03:47:49.518Z,15.42
2018-06-30T03:50:53.960Z,15.54
2018-06-30T03:53:58.482Z,15.72
2018-06-30T03:57:03.023Z,15.91
2018-06-30T04:00:07.858Z,16.01
2018-06-30T04:03:12.352Z,16.03
2018-06-30T04:06:16.880Z,16.05
2018-06-30T04:09:21.407Z,16.01
2018-06-30T04:12:25.998Z,16.13
2018-06-30T04:15:30.467Z,16.22
2018-06-30T04:18:34.983Z,15.99
2018-06-30T04:21:39.383Z,15.72
2018-06-30T04:24:43.919Z,15.50
2018-06-30T04:27:49.461Z,15.32
2018-06-30T04:30:53.925Z,15.15
2018-06-30T04:33:58.516Z,15.05
2018-06-30T04:37:03.139Z,14.99
2018-06-30T04:40:07.816Z,15.05
2018-06-30T04:43:12.318Z,15.09
2018-06-30T04:46:16.949Z,15.16
2018-06-30T04:49:21.481Z,15.23
2018-06-30T04:52:25.986Z,15.35
2018-06-30T04:55:30.581Z,15.41
2018-06-30T04:58:35.053Z,15.49
2018-06-30T05:01:39.502Z,15.51
2018-06-30T05:04:44.173Z,15.66
2018-06-30T05:07:48.590Z,15.70
2018-06-30T05:10:53.113Z,15.76
2018-06-30T05:13:57.692Z,15.85
2018-06-30T05:17:02.282Z,15.92
2018-06-30T05:20:06.802Z,15.99
2018-06-30T05:23:11.320Z,16.06
2018-06-30T05:26:16.084Z,16.12
2018-06-30T05:29:20.589Z,16.22
2018-06-30T05:32:25.209Z,16.29
2018-06-30T05:35:29.738Z,16.40
2018-06-30T05:38:34.249Z,16.45
2018-06-30T05:41:39.024Z,16.57
2018-06-30T05:44:43.521Z,16.68
2018-06-30T05:47:48.353Z,16.74
2018-06-30T05:50:52.843Z,16.83
2018-06-30T05:53:57.478Z,16.89
2018-06-30T05:57:02.052Z,16.94
2018-06-30T06:00:07.136Z,17.00
2018-06-30T06:03:11.704Z,17.10
2018-06-30T06:06:16.254Z,17.20
2018-06-30T06:09:20.977Z,17.27
2018-06-30T06:12:25.620Z,17.36
2018-06-30T06:15:30.186Z,17.45
2018-06-30T06:18:34.727Z,17.50
2018-06-30T06:21:39.211Z,17.65
2018-06-30T06:24:43.884Z,17.71
2018-06-30T06:27:48.380Z,17.79
2018-06-30T06:30:52.847Z,17.92
2018-06-30T06:33:57.793Z,18.01
2018-06-30T06:37:02.415Z,18.08
2018-06-30T06:40:07.406Z,18.17
2018-06-30T06:43:12.167Z,18.27
2018-06-30T06:46:16.649Z,18.42
2018-06-30T06:49:21.212Z,18.50
2018-06-30T06:52:25.704Z,18.61
2018-06-30T06:55:30.122Z,18.67
2018-06-30T06:58:34.637Z,18.69
2018-06-30T07:01:39.211Z,18.75
2018-06-30T07:04:43.693Z,18.69
2018-06-30T07:07:48.385Z,18.75
2018-06-30T07:10:52.970Z,18.91
2018-06-30T07:13:57.627Z,19.10
2018-06-30T07:17:02.212Z,19.28
2018-06-30T07:20:06.720Z,19.42
2018-06-30T07:23:11.414Z,19.38
2018-06-30T07:26:16.343Z,19.20
2018-06-30T07:29:21.143Z,18.99
2018-06-30T07:32:25.890Z,18.65
2018-06-30T07:35:30.855Z,18.56
2018-06-30T07:38:35.710Z,18.72
2018-06-30T07:41:41.511Z,18.96
2018-06-30T07:44:46.102Z,19.10
2018-06-30T07:47:50.716Z,19.30
2018-06-30T07:50:55.565Z,19.55
2018-06-30T07:54:00.623Z,19.70
2018-06-30T07:57:05.205Z,19.83
2018-06-30T08:00:10.055Z,19.81
2018-06-30T08:03:14.647Z,19.85
2018-06-30T08:06:19.232Z,19.95
2018-06-30T08:09:23.991Z,20.08
2018-06-30T08:12:28.771Z,20.29
2018-06-30T08:15:33.773Z,20.47
2018-06-30T08:18:38.337Z,20.65
2018-06-30T08:21:42.954Z,20.79
2018-06-30T08:24:47.887Z,20.91
2018-06-30T08:27:52.594Z,20.77
2018-06-30T08:30:57.302Z,20.72
2018-06-30T08:34:02.159Z,20.68
2018-06-30T08:37:07.308Z,20.76
2018-06-30T08:40:12.129Z,20.68
2018-06-30T08:43:16.745Z,20.75
2018-06-30T08:46:21.613Z,20.85
2018-06-30T08:49:26.150Z,20.93
2018-06-30T08:52:30.874Z,20.77
2018-06-30T08:55:36.095Z,20.94
2018-06-30T08:58:41.327Z,21.10
2018-06-30T09:01:46.134Z,21.09
2018-06-30T09:04:51.003Z,21.06
2018-06-30T09:07:55.943Z,21.13
2018-06-30T09:11:00.606Z,21.18
2018-06-30T09:14:05.697Z,21.04
2018-06-30T09:17:11.421Z,20.97
2018-06-30T09:20:16.375Z,21.01
2018-06-30T09:23:21.488Z,21.34
2018-06-30T09:26:26.336Z,21.69
2018-06-30T09:29:31.523Z,21.91
2018-06-30T09:32:36.956Z,21.97
2018-06-30T09:35:41.671Z,22.03
2018-06-30T09:38:46.191Z,22.27
2018-06-30T09:41:50.726Z,22.41
2018-06-30T09:44:55.561Z,22.46
2018-06-30T09:48:00.375Z,22.41
2018-06-30T09:51:05.442Z,22.27
2018-06-30T09:54:10.124Z,22.24
2018-06-30T09:57:14.706Z,22.26
2018-06-30T10:00:24.686Z,22.29
2018-06-30T10:03:29.520Z,22.29
2018-06-30T10:06:34.101Z,22.60
2018-06-30T10:09:38.828Z,22.60
2018-06-30T10:12:43.450Z,22.46
2018-06-30T10:15:48.142Z,22.53
2018-06-30T10:18:52.919Z,22.53
2018-06-30T10:21:57.549Z,22.39
2018-06-30T10:25:02.129Z,22.51
2018-06-30T10:28:06.931Z,22.62
2018-06-30T10:31:11.502Z,22.72
2018-06-30T10:34:16.553Z,22.55
2018-06-30T10:37:21.185Z,22.61
2018-06-30T10:40:26.014Z,22.69
2018-06-30T10:43:30.774Z,22.81
2018-06-30T10:46:35.472Z,22.72
2018-06-30T10:49:40.049Z,22.51
2018-06-30T10:52:44.705Z,22.38
2018-06-30T10:55:49.345Z,22.48
2018-06-30T10:58:54.582Z,22.62
2018-06-30T11:01:59.403Z,22.71
2018-06-30T11:05:04.131Z,22.63
2018-06-30T11:08:08.685Z,22.48
2018-06-30T11:11:13.211Z,22.44
2018-06-30T11:14:17.937Z,22.47
2018-06-30T11:17:22.684Z,22.43
2018-06-30T11:20:27.313Z,22.46
2018-06-30T11:23:31.917Z,22.49
2018-06-30T11:26:36.901Z,22.52
2018-06-30T11:29:41.682Z,22.64
2018-06-30T11:32:46.498Z,22.68
2018-06-30T11:35:51.044Z,22.51
2018-06-30T11:38:55.597Z,22.47
2018-06-30T11:42:00.271Z,22.54
2018-06-30T11:45:05.084Z,22.60
2018-06-30T11:48:09.837Z,22.69
2018-06-30T11:51:14.497Z,22.78
2018-06-30T11:54:18.792Z,22.79
2018-06-30T11:57:23.554Z,22.65
2018-06-30T12:00:28.148Z,22.57
2018-06-30T12:03:32.837Z,22.45
2018-06-30T12:06:37.536Z,22.35
2018-06-30T12:09:42.145Z,22.51
2018-06-30T12:12:46.764Z,22.79
2018-06-30T12:15:51.265Z,22.90
2018-06-30T12:18:56.000Z,23.01
2018-06-30T12:22:00.508Z,23.00
2018-06-30T12:25:05.150Z,22.95
2018-06-30T12:28:09.645Z,22.98
2018-06-30T12:31:14.073Z,22.85
2018-06-30T12:34:18.803Z,22.86
2018-06-30T12:37:23.364Z,22.89
2018-06-30T12:40:27.964Z,23.04
2018-06-30T12:43:32.626Z,23.32
2018-06-30T12:46:37.276Z,23.35
2018-06-30T12:49:42.089Z,23.40
2018-06-30T12:52:46.876Z,23.59
2018-06-30T12:55:51.432Z,23.43
2018-06-30T12:58:56.084Z,23.50
2018-06-30T13:02:00.660Z,23.33
2018-06-30T13:05:05.862Z,23.09
2018-06-30T13:08:10.670Z,22.87
2018-06-30T13:11:15.513Z,22.68
2018-06-30T13:14:20.173Z,22.63
2018-06-30T13:17:24.743Z,22.70
2018-06-30T13:20:29.322Z,22.85
2018-06-30T13:23:33.858Z,23.04
2018-06-30T13:26:38.516Z,23.09
2018-06-30T13:29:43.033Z,23.11
2018-06-30T13:32:47.828Z,23.35
2018-06-30T13:35:52.587Z,23.37
2018-06-30T13:38:57.096Z,23.21
2018-06-30T13:42:01.876Z,23.09
2018-06-30T13:45:08.045Z,23.01
2018-06-30T13:48:12.720Z,23.00
2018-06-30T13:51:17.532Z,22.95
2018-06-30T13:54:22.056Z,23.04
2018-06-30T13:57:26.572Z,23.11
2018-06-30T14:00:31.407Z,23.06
2018-06-30T14:03:35.973Z,23.20
2018-06-30T14:06:40.586Z,23.26
2018-06-30T14:09:45.190Z,23.37
2018-06-30T14:12:49.964Z,23.39
2018-06-30T14:15:54.812Z,23.62
2018-06-30T14:18:59.103Z,23.68
2018-06-30T14:22:03.783Z,23.81
2018-06-30T14:25:08.720Z,23.69
2018-06-30T14:28:13.279Z,23.68
2018-06-30T14:31:17.775Z,23.54
2018-06-30T14:34:22.406Z,23.73
2018-06-30T14:37:26.939Z,23.63
2018-06-30T14:40:31.770Z,23.58
2018-06-30T14:43:36.545Z,23.53
2018-06-30T14:46:41.030Z,23.64
2018-06-30T14:49:45.923Z,23.57
2018-06-30T14:52:50.460Z,23.44
2018-06-30T14:55:54.970Z,23.90
2018-06-30T14:59:00.483Z,23.90
2018-06-30T15:02:05.193Z,23.80
2018-06-30T15:05:11.300Z,23.82
2018-06-30T15:08:16.369Z,23.79
2018-06-30T15:11:20.863Z,23.97
2018-06-30T15:14:25.806Z,24.32
2018-06-30T15:17:30.467Z,24.97
2018-06-30T15:20:35.178Z,25.24
2018-06-30T15:23:39.825Z,25.68
2018-06-30T15:26:44.841Z,25.79
2018-06-30T15:29:49.555Z,25.95
2018-06-30T15:32:54.239Z,26.32
2018-06-30T15:35:58.901Z,26.66
2018-06-30T15:39:03.627Z,26.33
2018-06-30T15:42:08.136Z,26.67
2018-06-30T15:45:12.733Z,26.79
2018-06-30T15:48:17.331Z,26.85
2018-06-30T15:51:21.836Z,26.64
2018-06-30T15:54:26.391Z,26.56
2018-06-30T15:57:31.090Z,26.56
2018-06-30T16:00:35.879Z,26.68
2018-06-30T16:03:40.380Z,27.13
2018-06-30T16:06:45.266Z,27.31
2018-06-30T16:09:49.988Z,27.00
2018-06-30T16:12:54.417Z,27.28
2018-06-30T16:15:59.098Z,27.16
2018-06-30T16:19:03.936Z,26.63
2018-06-30T16:22:08.508Z,27.17
2018-06-30T16:25:13.057Z,27.18
2018-06-30T16:28:17.526Z,27.18
2018-06-30T16:31:22.011Z,27.47
2018-06-30T16:34:26.500Z,27.75
2018-06-30T16:37:31.046Z,28.12
2018-06-30T16:40:35.555Z,28.33
2018-06-30T16:43:40.191Z,28.26
2018-06-30T16:46:44.723Z,28.23
2018-06-30T16:49:49.233Z,28.01
2018-06-30T16:52:53.764Z,28.07
2018-06-30T16:55:58.272Z,27.95
2018-06-30T16:59:02.711Z,27.81
2018-06-30T17:02:07.350Z,27.92
2018-06-30T17:05:11.963Z,28.10
2018-06-30T17:08:16.512Z,28.10
2018-06-30T17:11:21.678Z,28.05
2018-06-30T17:14:26.144Z,28.21
2018-06-30T17:17:30.798Z,28.01
2018-06-30T17:20:35.345Z,26.97
2018-06-30T17:23:39.941Z,25.93
2018-06-30T17:26:44.456Z,24.86
2018-06-30T17:29:48.986Z,24.27
2018-06-30T17:32:53.497Z,23.49
2018-06-30T17:35:58.119Z,23.16
2018-06-30T17:39:02.822Z,22.96
2018-06-30T17:42:07.381Z,22.74
2018-06-30T17:45:11.926Z,22.50
2018-06-30T17:48:16.412Z,22.38
2018-06-30T17:51:21.148Z,22.32
2018-06-30T17:54:25.799Z,22.18
2018-06-30T17:57:30.613Z,22.05
2018-06-30T18:00:35.243Z,22.00
2018-06-30T18:03:39.892Z,21.95
2018-06-30T18:06:44.417Z,21.91
2018-06-30T18:09:48.913Z,21.82
2018-06-30T18:12:53.790Z,21.73
2018-06-30T18:15:58.466Z,21.65
2018-06-30T18:19:03.134Z,21.61
2018-06-30T18:22:07.661Z,21.53
2018-06-30T18:25:12.464Z,21.51
2018-06-30T18:28:17.080Z,21.48
2018-06-30T18:31:21.677Z,21.43
2018-06-30T18:34:26.392Z,21.33
2018-06-30T18:37:30.940Z,21.31
2018-06-30T18:40:35.606Z,21.31
2018-06-30T18:43:40.237Z,21.20
2018-06-30T18:46:44.830Z,21.15
2018-06-30T18:49:49.395Z,21.09
2018-06-30T18:52:53.898Z,21.04
2018-06-30T18:55:58.544Z,20.89
2018-06-30T18:59:03.276Z,20.77
2018-06-30T19:02:07.876Z,20.63
2018-06-30T19:05:12.350Z,20.44
2018-06-30T19:08:16.943Z,20.20
2018-06-30T19:11:21.713Z,20.00
2018-06-30T19:14:26.039Z,19.84
2018-06-30T19:17:30.729Z,19.78
2018-06-30T19:20:35.396Z,19.69
2018-06-30T19:23:40.161Z,19.58
2018-06-30T19:26:44.780Z,19.46
2018-06-30T19:29:49.401Z,19.37
2018-06-30T19:32:54.191Z,19.34
2018-06-30T19:35:58.873Z,19.34
2018-06-30T19:39:03.724Z,19.32
2018-06-30T19:42:08.616Z,19.24
2018-06-30T19:45:13.307Z,19.17
2018-06-30T19:48:17.917Z,19.08
2018-06-30T19:51:22.730Z,18.89
2018-06-30T19:54:27.367Z,18.65
2018-06-30T19:57:31.944Z,18.49
2018-06-30T20:00:36.861Z,18.32
2018-06-30T20:03:41.660Z,18.15
2018-06-30T20:06:46.157Z,18.05
2018-06-30T20:09:51.024Z,18.06
2018-06-30T20:12:56.691Z,18.00
2018-06-30T20:16:01.250Z,17.88
2018-06-30T20:19:06.293Z,17.78
2018-06-30T20:22:11.008Z,17.68
2018-06-30T20:25:15.754Z,17.51
2018-06-30T20:28:20.339Z,17.34
2018-06-30T20:31:24.941Z,17.20
2018-06-30T20:34:29.622Z,17.11
2018-06-30T20:37:34.271Z,17.01
2018-06-30T20:40:39.026Z,16.94
2018-06-30T20:43:43.741Z,16.89
2018-06-30T20:46:48.494Z,16.84
2018-06-30T20:49:53.164Z,16.92
2018-06-30T20:52:58.020Z,17.04
2018-06-30T20:56:02.620Z,17.08
2018-06-30T20:59:07.308Z,17.03
2018-06-30T21:02:12.172Z,17.16
2018-06-30T21:05:16.853Z,17.26
2018-06-30T21:08:21.537Z,17.32
2018-06-30T21:11:26.215Z,17.26
2018-06-30T21:14:30.841Z,17.32
2018-06-30T21:17:35.715Z,17.27
2018-06-30T21:20:40.295Z,17.09
2018-06-30T21:23:44.939Z,16.90
2018-06-30T21:26:49.585Z,16.74
2018-06-30T21:29:54.264Z,16.58
2018-06-30T21:32:58.776Z,16.46
2018-06-30T21:36:03.556Z,16.35
2018-06-30T21:39:11.749Z,16.26
2018-06-30T21:42:16.466Z,16.16
2018-06-30T21:45:21.228Z,16.07
2018-06-30T21:48:25.655Z,16.00
2018-06-30T21:51:30.209Z,15.92
2018-06-30T21:54:34.754Z,15.83
2018-06-30T21:57:39.320Z,15.76
2018-06-30T22:00:51.461Z,15.78
2018-06-30T22:03:57.375Z,15.79
2018-06-30T22:07:02.073Z,15.68
2018-06-30T22:10:09.324Z,15.57
2018-06-30T22:13:15.038Z,15.48
2018-06-30T22:16:19.635Z,15.34
2018-06-30T22:19:24.183Z,15.19
2018-06-30T22:22:29.551Z,15.14
2018-06-30T22:25:35.187Z,15.08
2018-06-30T22:28:41.457Z,15.08
2018-06-30T22:31:49.897Z,15.07
2018-06-30T22:34:54.548Z,15.07
2018-06-30T22:38:01.292Z,15.13
2018-06-30T22:41:05.881Z,15.25
2018-06-30T22:44:13.880Z,15.23
2018-06-30T22:48:02.311Z,15.21
2018-06-30T22:51:14.802Z,15.16
2018-06-30T22:54:25.421Z,15.12
2018-06-30T23:00:54.137Z,14.98
2018-06-30T23:04:12.239Z,14.93
2018-06-30T23:07:20.247Z,14.89
2018-06-30T23:10:39.642Z,14.86
2018-06-30T23:13:58.417Z,14.89
2018-06-30T23:17:15.747Z,14.84
2018-06-30T23:20:29.596Z,14.72
2018-06-30T23:27:13.125Z,14.38
2018-06-30T23:30:29.364Z,14.25
2018-06-30T23:33:47.109Z,14.16
2018-06-30T23:37:03.641Z,14.11
2018-06-30T23:43:37.773Z,14.05
2018-06-30T23:46:47.586Z,13.99
2018-06-30T23:50:00.576Z,13.98
2018-06-30T23:53:26.169Z,13.97
2018-06-30T23:56:48.186Z,13.94
